Time;durP1;ratioP1;P1;durP2;ratioP2;P2;SDS_P1;SDS_P2;PMS_P1;PMS_P2;Temp;Humidity;BMP_temperature;BMP_pressure;BME280_temperature;BME280_humidity;BME280_pressure;Samples;Min_cycle;Max_cycle;Signal;HPM_P1;HPM_P2
2022/12/20 00:01:48;;;;;;;25.73;14.88;;;;;;;;;;4981072;28;20034;-66
2022/12/20 00:04:13;;;;;;;26.45;16.55;;;;;;;;;;4984164;28;20161;-67
2022/12/20 00:06:40;;;;;;;30.02;17.38;;;;;;;;;;4980995;28;20049;-66
2022/12/20 00:09:10;;;;;;;21.73;15.65;;;;;;;;;;4979615;28;20030;-66
2022/12/20 00:11:38;;;;;;;21.50;16.02;;;;;;;;;;4979036;28;20053;-67
2022/12/20 00:14:04;;;;;;;20.60;14.17;;;;;;;;;;4979692;28;20042;-66
2022/12/20 00:16:30;;;;;;;22.42;14.75;;;;;;;;;;4980282;28;20060;-67
2022/12/20 00:18:59;;;;;;;24.58;16.45;;;;;;;;;;4979032;28;20042;-67
2022/12/20 00:21:26;;;;;;;24.15;15.60;;;;;;;;;;4983890;28;20068;-66
2022/12/20 00:23:52;;;;;;;19.63;13.23;;;;;;;;;;4978276;28;20042;-67
2022/12/20 00:26:20;;;;;;;22.55;15.27;;;;;;;;;;4982137;28;20053;-66
2022/12/20 00:28:46;;;;;;;23.90;16.05;;;;;;;;;;4977713;28;20037;-67
2022/12/20 00:31:14;;;;;;;24.80;17.25;;;;;;;;;;4982871;28;20042;-67
2022/12/20 00:33:44;;;;;;;21.65;13.98;;;;;;;;;;4979561;28;20049;-67
2022/12/20 00:36:09;;;;;;;30.30;16.70;;;;;;;;;;4999420;28;20406;-67
2022/12/20 00:38:35;;;;;;;15.05;11.13;;;;;;;;;;4979665;28;20038;-66
2022/12/20 00:41:13;;;;;;;12.63;11.07;;;;;;;;;;4985413;28;20041;-66
2022/12/20 00:43:39;;;;;;;22.45;15.35;;;;;;;;;;4981461;28;20037;-67
2022/12/20 00:46:07;;;;;;;31.67;15.85;;;;;;;;;;4981063;28;20043;-67
2022/12/20 00:48:33;;;;;;;23.02;16.40;;;;;;;;;;4983807;28;20034;-66
2022/12/20 00:51:10;;;;;;;20.90;13.48;;;;;;;;;;4986532;28;20394;-66
2022/12/20 00:53:36;;;;;;;16.70;12.38;;;;;;;;;;4985728;28;20046;-67
2022/12/20 00:56:02;;;;;;;15.93;12.07;;;;;;;;;;4973786;28;20053;-67
2022/12/20 00:58:28;;;;;;;24.30;14.77;;;;;;;;;;4983126;28;20461;-67
2022/12/20 01:00:55;;;;;;;22.75;15.85;;;;;;;;;;4990365;28;20034;-67
2022/12/20 01:03:22;;;;;;;17.15;11.93;;;;;;;;;;4984793;28;20054;-67
2022/12/20 01:06:10;;;;;;;25.30;15.88;;;;;;;;;;4981647;28;20042;-67
2022/12/20 01:08:36;;;;;;;15.43;12.50;;;;;;;;;;4982471;28;20079;-67
2022/12/20 01:11:03;;;;;;;12.18;10.63;;;;;;;;;;4982873;28;20129;-67
2022/12/20 01:13:30;;;;;;;16.67;13.57;;;;;;;;;;4980632;28;20541;-67
2022/12/20 01:15:56;;;;;;;22.20;15.38;;;;;;;;;;4979840;28;20030;-66
2022/12/20 01:18:22;;;;;;;27.95;16.60;;;;;;;;;;4982553;28;20037;-66
2022/12/20 01:20:48;;;;;;;16.17;12.20;;;;;;;;;;4985039;28;20414;-66
2022/12/20 01:23:13;;;;;;;10.27;9.38;;;;;;;;;;4967258;28;20053;-67
2022/12/20 01:25:39;;;;;;;24.20;14.45;;;;;;;;;;4984086;28;20053;-67
2022/12/20 01:28:05;;;;;;;23.90;14.80;;;;;;;;;;4981624;28;20133;-66
2022/12/20 01:30:30;;;;;;;20.42;12.85;;;;;;;;;;4984398;28;20157;-66
2022/12/20 01:32:56;;;;;;;22.98;15.07;;;;;;;;;;4981035;28;20251;-67
2022/12/20 01:35:21;;;;;;;26.95;15.73;;;;;;;;;;4983963;28;20117;-67
2022/12/20 01:37:47;;;;;;;15.07;10.60;;;;;;;;;;4966678;28;20030;-67
2022/12/20 01:40:13;;;;;;;14.00;10.57;;;;;;;;;;4978990;28;20133;-67
2022/12/20 01:42:38;;;;;;;12.65;10.20;;;;;;;;;;4999011;28;20111;-66
2022/12/20 01:45:18;;;;;;;13.13;9.73;;;;;;;;;;4982370;28;20128;-67
2022/12/20 01:47:45;;;;;;;8.80;8.05;;;;;;;;;;4979073;28;20062;-66
2022/12/20 01:50:10;;;;;;;14.95;11.88;;;;;;;;;;4980781;28;20039;-66
2022/12/20 01:52:39;;;;;;;10.93;9.77;;;;;;;;;;4980156;28;20137;-66
2022/12/20 01:55:23;;;;;;;19.58;13.30;;;;;;;;;;4976153;28;20066;-67
2022/12/20 01:57:55;;;;;;;12.20;10.77;;;;;;;;;;4994848;28;20030;-67
2022/12/20 02:00:21;;;;;;;23.33;13.52;;;;;;;;;;4983216;28;20660;-67
2022/12/20 02:02:48;;;;;;;14.23;12.02;;;;;;;;;;4983972;28;20045;-67
2022/12/20 02:05:17;;;;;;;21.65;14.00;;;;;;;;;;4983583;28;20034;-66
2022/12/20 02:07:47;;;;;;;20.17;13.38;;;;;;;;;;4980813;28;20057;-67
2022/12/20 02:10:17;;;;;;;15.07;11.80;;;;;;;;;;4980294;28;20092;-66
2022/12/20 02:12:44;;;;;;;11.60;10.23;;;;;;;;;;4981849;28;20045;-67
2022/12/20 02:15:22;;;;;;;9.93;8.75;;;;;;;;;;4984401;28;20045;-67
2022/12/20 02:18:13;;;;;;;17.77;10.90;;;;;;;;;;4981981;28;20039;-67
2022/12/20 02:20:58;;;;;;;15.80;11.00;;;;;;;;;;4981287;28;20053;-67
2022/12/20 02:23:50;;;;;;;17.85;13.82;;;;;;;;;;4981735;28;20555;-66
2022/12/20 02:26:24;;;;;;;24.00;14.23;;;;;;;;;;4983427;28;20676;-66
2022/12/20 02:29:20;;;;;;;22.08;15.23;;;;;;;;;;4983409;28;20048;-67
2022/12/20 02:32:11;;;;;;;12.40;9.75;;;;;;;;;;4980107;28;20070;-67
2022/12/20 02:34:39;;;;;;;15.75;13.02;;;;;;;;;;4982891;28;20112;-67
2022/12/20 02:37:05;;;;;;;25.13;15.68;;;;;;;;;;4981686;28;20034;-67
2022/12/20 02:39:33;;;;;;;24.33;15.05;;;;;;;;;;4981426;28;20104;-69
2022/12/20 02:42:10;;;;;;;22.60;13.52;;;;;;;;;;4981783;28;20555;-66
2022/12/20 02:47:36;;;;;;;19.95;13.57;;;;;;;;;;4981280;28;20046;-67
2022/12/20 02:50:03;;;;;;;24.30;15.73;;;;;;;;;;4981447;28;20064;-67
2022/12/20 02:52:31;;;;;;;21.08;13.90;;;;;;;;;;4980632;28;20105;-67
2022/12/20 02:54:58;;;;;;;31.98;15.82;;;;;;;;;;4982337;28;20168;-67
2022/12/20 02:58:03;;;;;;;18.52;12.57;;;;;;;;;;4981876;28;20034;-67
2022/12/20 03:00:35;;;;;;;21.60;15.00;;;;;;;;;;4963931;28;20069;-66
2022/12/20 03:05:49;;;;;;;25.38;15.30;;;;;;;;;;4985197;28;20030;-67
2022/12/20 03:08:18;;;;;;;22.45;14.20;;;;;;;;;;4987218;28;20113;-67
2022/12/20 03:10:44;;;;;;;33.65;17.75;;;;;;;;;;4980537;28;20061;-66
2022/12/20 03:13:10;;;;;;;13.23;9.77;;;;;;;;;;4986841;28;20625;-66
2022/12/20 03:15:42;;;;;;;19.33;14.13;;;;;;;;;;4981523;28;20666;-67
2022/12/20 03:18:08;;;;;;;28.88;16.00;;;;;;;;;;4984888;28;20034;-67
2022/12/20 03:20:34;;;;;;;23.15;15.85;;;;;;;;;;4987347;28;20113;-67
2022/12/20 03:22:59;;;;;;;26.67;15.13;;;;;;;;;;4987919;28;20026;-67
2022/12/20 03:25:25;;;;;;;24.23;16.88;;;;;;;;;;4985441;28;20041;-67
2022/12/20 03:27:51;;;;;;;25.17;15.05;;;;;;;;;;4983717;28;20089;-67
2022/12/20 03:30:17;;;;;;;10.80;9.63;;;;;;;;;;4984987;28;20042;-67
2022/12/20 03:32:43;;;;;;;15.30;10.82;;;;;;;;;;4990419;28;20060;-66
2022/12/20 03:35:10;;;;;;;24.90;15.77;;;;;;;;;;4986062;28;20549;-67
2022/12/20 03:37:38;;;;;;;22.50;14.75;;;;;;;;;;4986650;28;20034;-67
2022/12/20 03:40:06;;;;;;;20.17;13.23;;;;;;;;;;4988890;28;20030;-67
2022/12/20 03:42:32;;;;;;;20.77;13.68;;;;;;;;;;4986669;28;20043;-67
2022/12/20 03:44:58;;;;;;;10.25;9.40;;;;;;;;;;4985391;28;20109;-67
2022/12/20 03:47:26;;;;;;;18.77;13.98;;;;;;;;;;4985084;28;20060;-67
2022/12/20 03:49:52;;;;;;;23.42;13.90;;;;;;;;;;4985836;28;20062;-67
2022/12/20 03:52:18;;;;;;;28.00;15.35;;;;;;;;;;4984097;28;20037;-67
2022/12/20 03:54:44;;;;;;;18.75;13.88;;;;;;;;;;4985430;28;20034;-67
2022/12/20 03:57:13;;;;;;;20.55;12.60;;;;;;;;;;4987523;28;20447;-67
2022/12/20 03:59:39;;;;;;;17.75;13.05;;;;;;;;;;4985531;28;20724;-66
2022/12/20 04:02:07;;;;;;;16.40;11.65;;;;;;;;;;4977379;28;20038;-67
2022/12/20 04:04:32;;;;;;;8.55;7.85;;;;;;;;;;4982311;28;20045;-66
2022/12/20 04:06:58;;;;;;;10.23;8.77;;;;;;;;;;4981224;28;20923;-67
2022/12/20 04:09:24;;;;;;;24.95;15.00;;;;;;;;;;4977617;28;20038;-67
2022/12/20 04:11:55;;;;;;;18.52;13.65;;;;;;;;;;4977444;28;20056;-67
2022/12/20 04:14:22;;;;;;;23.67;14.93;;;;;;;;;;4980070;28;20072;-67
2022/12/20 04:16:48;;;;;;;13.15;9.02;;;;;;;;;;4979156;28;20058;-67
2022/12/20 04:19:14;;;;;;;21.35;14.45;;;;;;;;;;4979280;28;20498;-67
2022/12/20 04:21:43;;;;;;;19.60;13.40;;;;;;;;;;4983298;28;20056;-67
2022/12/20 04:24:10;;;;;;;14.50;13.00;;;;;;;;;;4981005;28;20453;-67
2022/12/20 04:26:42;;;;;;;12.68;10.82;;;;;;;;;;4978361;28;20050;-67
2022/12/20 04:29:08;;;;;;;21.77;14.07;;;;;;;;;;4979986;28;20532;-67
2022/12/20 04:31:35;;;;;;;23.73;14.95;;;;;;;;;;4979125;28;20062;-67
2022/12/20 04:34:01;;;;;;;22.08;14.43;;;;;;;;;;4977503;28;20058;-67
2022/12/20 04:36:29;;;;;;;13.82;9.45;;;;;;;;;;4978973;28;20117;-66
2022/12/20 04:38:57;;;;;;;21.33;13.45;;;;;;;;;;4979577;28;20038;-67
2022/12/20 04:41:22;;;;;;;16.08;12.70;;;;;;;;;;4983032;28;20039;-67
2022/12/20 04:43:55;;;;;;;16.67;11.35;;;;;;;;;;4979770;28;20166;-67
2022/12/20 04:46:25;;;;;;;17.77;13.35;;;;;;;;;;4974649;28;20069;-66
2022/12/20 04:48:53;;;;;;;18.95;13.77;;;;;;;;;;4975084;28;20038;-66
2022/12/20 04:51:19;;;;;;;19.02;12.73;;;;;;;;;;4979218;28;20526;-67
2022/12/20 04:53:47;;;;;;;17.65;12.32;;;;;;;;;;4984958;28;20041;-66
2022/12/20 04:56:26;;;;;;;35.60;20.88;;;;;;;;;;4979998;28;20072;-66
2022/12/20 04:58:55;;;;;;;20.45;14.15;;;;;;;;;;4979069;28;20069;-67
2022/12/20 05:01:21;;;;;;;24.95;16.33;;;;;;;;;;4979350;28;20084;-66
2022/12/20 05:03:49;;;;;;;14.43;11.87;;;;;;;;;;4980953;28;20042;-66
2022/12/20 05:06:15;;;;;;;15.98;12.95;;;;;;;;;;4980769;28;20300;-66
2022/12/20 05:08:41;;;;;;;20.02;14.73;;;;;;;;;;4981859;28;20038;-67
2022/12/20 05:11:07;;;;;;;18.60;13.38;;;;;;;;;;4979530;28;20418;-67
2022/12/20 05:13:35;;;;;;;20.23;12.73;;;;;;;;;;4980265;28;20044;-66
2022/12/20 05:16:01;;;;;;;24.15;15.02;;;;;;;;;;4976422;28;20034;-67
2022/12/20 05:18:30;;;;;;;17.35;13.60;;;;;;;;;;4977348;28;20034;-66
2022/12/20 05:26:43;;;;;;;19.92;15.07;;;;;;;;;;4980582;28;20043;-66
2022/12/20 05:29:08;;;;;;;18.83;14.75;;;;;;;;;;4982262;28;20037;-67
2022/12/20 05:31:34;;;;;;;25.38;16.75;;;;;;;;;;4982304;28;20533;-67
2022/12/20 05:34:01;;;;;;;21.67;14.73;;;;;;;;;;4984560;28;20114;-67
2022/12/20 05:36:30;;;;;;;12.60;7.85;;;;;;;;;;4985364;28;20031;-67
2022/12/20 05:38:57;;;;;;;18.70;13.50;;;;;;;;;;4983177;28;20088;-67
2022/12/20 05:41:22;;;;;;;16.73;12.43;;;;;;;;;;4983282;28;20042;-67
2022/12/20 05:43:51;;;;;;;21.15;14.77;;;;;;;;;;4982185;28;20034;-67
2022/12/20 05:46:16;;;;;;;23.08;14.77;;;;;;;;;;4983542;28;20516;-67
2022/12/20 05:48:52;;;;;;;10.45;9.43;;;;;;;;;;4984015;28;20038;-67
2022/12/20 05:51:17;;;;;;;14.07;10.93;;;;;;;;;;4981223;28;20460;-67
2022/12/20 05:53:54;;;;;;;22.45;15.65;;;;;;;;;;4983323;28;20042;-67
2022/12/20 05:56:30;;;;;;;25.80;14.50;;;;;;;;;;4980242;28;20042;-66
2022/12/20 05:58:56;;;;;;;24.52;14.90;;;;;;;;;;4982223;28;20390;-66
2022/12/20 06:01:22;;;;;;;18.08;12.95;;;;;;;;;;4982696;28;20034;-67
2022/12/20 06:03:51;;;;;;;15.93;12.13;;;;;;;;;;4980604;28;20046;-67
2022/12/20 06:06:17;;;;;;;30.50;16.48;;;;;;;;;;4977600;28;21163;-66
2022/12/20 06:08:45;;;;;;;13.25;11.02;;;;;;;;;;4978316;28;20085;-67
2022/12/20 06:11:17;;;;;;;11.27;10.15;;;;;;;;;;4981018;28;20132;-67
2022/12/20 06:13:50;;;;;;;13.60;10.77;;;;;;;;;;4983283;28;20030;-65
2022/12/20 06:16:19;;;;;;;19.67;13.38;;;;;;;;;;4985354;28;20125;-66
2022/12/20 06:18:45;;;;;;;11.05;9.93;;;;;;;;;;4985866;28;20141;-67
2022/12/20 06:21:12;;;;;;;16.27;12.15;;;;;;;;;;4986301;28;20489;-66
2022/12/20 06:23:37;;;;;;;18.25;13.00;;;;;;;;;;4982545;28;20123;-68
2022/12/20 06:26:09;;;;;;;16.83;12.93;;;;;;;;;;4988655;28;20128;-67
2022/12/20 06:28:44;;;;;;;19.33;11.13;;;;;;;;;;4982749;28;20038;-67
2022/12/20 06:31:10;;;;;;;9.90;8.65;;;;;;;;;;4986154;28;20039;-67
2022/12/20 06:33:42;;;;;;;18.88;13.10;;;;;;;;;;4986063;28;20045;-67
2022/12/20 06:36:09;;;;;;;24.25;13.60;;;;;;;;;;4984736;28;20348;-67
2022/12/20 06:38:35;;;;;;;10.68;9.05;;;;;;;;;;4982922;28;20664;-67
2022/12/20 06:41:01;;;;;;;25.00;14.10;;;;;;;;;;4981144;28;20038;-67
2022/12/20 06:43:27;;;;;;;19.17;14.48;;;;;;;;;;4983906;28;20030;-66
2022/12/20 06:45:52;;;;;;;21.27;13.95;;;;;;;;;;4987236;28;20049;-67
2022/12/20 06:48:20;;;;;;;19.95;13.23;;;;;;;;;;4984255;28;20069;-66
2022/12/20 06:50:50;;;;;;;23.17;15.10;;;;;;;;;;4977873;28;20117;-67
2022/12/20 06:53:18;;;;;;;21.58;15.10;;;;;;;;;;4983200;28;20042;-66
2022/12/20 06:55:46;;;;;;;22.15;14.48;;;;;;;;;;4984679;28;21077;-66
2022/12/20 06:58:12;;;;;;;20.25;14.18;;;;;;;;;;4982271;28;20612;-68
2022/12/20 07:00:38;;;;;;;20.77;14.95;;;;;;;;;;4985373;28;20034;-67
2022/12/20 07:03:03;;;;;;;18.33;14.77;;;;;;;;;;4983933;28;20085;-68
2022/12/20 07:05:29;;;;;;;21.42;14.13;;;;;;;;;;4984695;28;20042;-68
2022/12/20 07:07:54;;;;;;;19.27;13.35;;;;;;;;;;4985067;28;20038;-68
2022/12/20 07:10:20;;;;;;;22.23;15.27;;;;;;;;;;4986073;28;20242;-67
2022/12/20 07:12:45;;;;;;;18.05;14.00;;;;;;;;;;4984063;28;20034;-68
2022/12/20 07:15:11;;;;;;;22.23;14.60;;;;;;;;;;4984579;28;20030;-68
2022/12/20 07:17:37;;;;;;;22.33;17.42;;;;;;;;;;4981247;28;20038;-68
2022/12/20 07:20:02;;;;;;;23.75;15.68;;;;;;;;;;4983189;28;20121;-68
2022/12/20 07:22:28;;;;;;;26.25;15.90;;;;;;;;;;4984183;28;20034;-68
2022/12/20 07:24:54;;;;;;;24.05;15.48;;;;;;;;;;4984782;28;20070;-68
2022/12/20 07:27:19;;;;;;;31.23;17.05;;;;;;;;;;4983616;28;20538;-68
2022/12/20 07:29:45;;;;;;;18.50;10.75;;;;;;;;;;4983867;28;20088;-67
2022/12/20 07:32:12;;;;;;;15.57;12.00;;;;;;;;;;4986091;28;20088;-67
2022/12/20 07:34:37;;;;;;;21.10;14.50;;;;;;;;;;4982458;28;20105;-67
2022/12/20 07:37:03;;;;;;;20.90;14.32;;;;;;;;;;4980929;28;20040;-68
2022/12/20 07:39:29;;;;;;;22.67;16.30;;;;;;;;;;4982639;28;20030;-67
2022/12/20 07:41:55;;;;;;;17.75;14.10;;;;;;;;;;4982200;28;20057;-68
2022/12/20 07:44:21;;;;;;;23.25;16.05;;;;;;;;;;4980320;28;20069;-67
2022/12/20 07:46:47;;;;;;;19.40;14.13;;;;;;;;;;4984649;28;20112;-68
2022/12/20 07:49:14;;;;;;;22.17;15.30;;;;;;;;;;4985273;28;20034;-68
2022/12/20 07:51:44;;;;;;;19.40;14.15;;;;;;;;;;4983289;28;20117;-68
2022/12/20 07:54:17;;;;;;;29.02;17.38;;;;;;;;;;4984497;28;20176;-68
2022/12/20 07:56:47;;;;;;;20.52;15.23;;;;;;;;;;4985148;28;20541;-68
2022/12/20 07:59:16;;;;;;;19.88;14.93;;;;;;;;;;4984430;28;20044;-68
2022/12/20 08:01:44;;;;;;;19.70;14.98;;;;;;;;;;4980802;28;20034;-68
2022/12/20 08:04:14;;;;;;;20.00;15.05;;;;;;;;;;4983606;28;20045;-69
2022/12/20 08:06:41;;;;;;;24.20;15.82;;;;;;;;;;4983020;28;20518;-68
2022/12/20 08:09:09;;;;;;;23.52;17.55;;;;;;;;;;4983156;28;20077;-68
2022/12/20 08:11:36;;;;;;;22.15;15.20;;;;;;;;;;4981290;28;20038;-68
2022/12/20 08:14:03;;;;;;;22.25;15.95;;;;;;;;;;4983582;28;20042;-67
2022/12/20 08:16:29;;;;;;;27.98;16.92;;;;;;;;;;4982998;28;20065;-68
2022/12/20 08:18:55;;;;;;;26.98;16.52;;;;;;;;;;4984525;28;20405;-68
2022/12/20 08:21:21;;;;;;;25.63;18.83;;;;;;;;;;4982733;28;20030;-68
2022/12/20 08:23:47;;;;;;;24.15;17.95;;;;;;;;;;4983437;28;20070;-68
2022/12/20 08:26:13;;;;;;;22.35;15.50;;;;;;;;;;4983653;28;20034;-69
2022/12/20 08:28:38;;;;;;;23.25;16.35;;;;;;;;;;4982163;28;20061;-68
2022/12/20 08:31:07;;;;;;;20.35;14.27;;;;;;;;;;4983376;28;20144;-69
2022/12/20 08:33:34;;;;;;;26.60;15.40;;;;;;;;;;4983123;28;20116;-68
2022/12/20 08:36:02;;;;;;;26.48;17.02;;;;;;;;;;4986240;28;20561;-68
2022/12/20 08:38:29;;;;;;;20.98;14.85;;;;;;;;;;4987608;28;20032;-68
2022/12/20 08:40:55;;;;;;;22.73;14.82;;;;;;;;;;4982958;28;20030;-69
2022/12/20 08:43:21;;;;;;;20.35;16.10;;;;;;;;;;4982653;28;20138;-68
2022/12/20 08:45:54;;;;;;;19.33;14.68;;;;;;;;;;4981002;28;20672;-68
2022/12/20 08:48:20;;;;;;;17.63;12.98;;;;;;;;;;4980836;28;20065;-68
2022/12/20 08:50:46;;;;;;;16.25;11.57;;;;;;;;;;4982937;28;20675;-68
2022/12/20 08:53:12;;;;;;;24.00;14.77;;;;;;;;;;4981624;28;20041;-68
2022/12/20 08:55:38;;;;;;;26.92;15.55;;;;;;;;;;4987525;28;20038;-68
2022/12/20 08:58:03;;;;;;;28.77;17.73;;;;;;;;;;4986385;28;20080;-68
2022/12/20 09:00:29;;;;;;;22.52;15.85;;;;;;;;;;4987401;28;20037;-69
2022/12/20 09:02:54;;;;;;;34.60;20.75;;;;;;;;;;4988721;28;20038;-69
2022/12/20 09:05:20;;;;;;;21.13;16.10;;;;;;;;;;4989926;28;20113;-68
2022/12/20 09:07:45;;;;;;;20.85;15.82;;;;;;;;;;4987387;28;20042;-68
2022/12/20 09:10:12;;;;;;;27.33;17.25;;;;;;;;;;4987018;28;20104;-69
2022/12/20 09:12:38;;;;;;;26.05;18.67;;;;;;;;;;4986732;28;20042;-68
2022/12/20 09:15:04;;;;;;;26.38;17.35;;;;;;;;;;4988399;28;20049;-68
2022/12/20 09:17:30;;;;;;;20.58;16.95;;;;;;;;;;4986673;28;20041;-68
2022/12/20 09:19:56;;;;;;;21.45;15.98;;;;;;;;;;4987709;28;20030;-68
2022/12/20 09:22:21;;;;;;;19.75;14.90;;;;;;;;;;4988713;28;20423;-69
2022/12/20 09:24:48;;;;;;;18.52;12.60;;;;;;;;;;4986348;28;20026;-69
2022/12/20 09:27:14;;;;;;;19.60;13.27;;;;;;;;;;4985082;28;20497;-68
2022/12/20 09:29:39;;;;;;;19.40;13.85;;;;;;;;;;4987518;28;20046;-68
2022/12/20 09:32:05;;;;;;;18.77;13.75;;;;;;;;;;4986890;28;20034;-69
2022/12/20 09:34:31;;;;;;;19.48;13.30;;;;;;;;;;4987189;28;20038;-69
2022/12/20 09:36:56;;;;;;;14.63;12.48;;;;;;;;;;4984962;28;20050;-68
2022/12/20 09:39:22;;;;;;;14.23;11.32;;;;;;;;;;4987903;28;20034;-69
2022/12/20 09:41:48;;;;;;;12.98;11.40;;;;;;;;;;4987530;28;20046;-68
2022/12/20 09:44:28;;;;;;;17.70;12.38;;;;;;;;;;4985808;28;20042;-68
2022/12/20 09:47:08;;;;;;;14.20;11.73;;;;;;;;;;4985993;28;20100;-69
2022/12/20 09:49:38;;;;;;;12.15;11.05;;;;;;;;;;4984495;28;20486;-68
2022/12/20 09:52:25;;;;;;;18.30;14.15;;;;;;;;;;4987439;28;20093;-68
2022/12/20 09:55:00;;;;;;;19.05;13.18;;;;;;;;;;4984271;28;20030;-69
2022/12/20 09:57:57;;;;;;;19.20;13.35;;;;;;;;;;4982468;28;20041;-68
2022/12/20 10:00:22;;;;;;;17.02;13.40;;;;;;;;;;4986005;28;20041;-68
2022/12/20 10:02:48;;;;;;;13.20;11.82;;;;;;;;;;4986583;28;20038;-69
2022/12/20 10:05:18;;;;;;;20.27;15.77;;;;;;;;;;4983051;28;20132;-69
2022/12/20 10:08:08;;;;;;;17.63;13.20;;;;;;;;;;4981429;28;20409;-68
2022/12/20 10:10:48;;;;;;;20.90;14.77;;;;;;;;;;4985587;28;20250;-70
2022/12/20 10:13:29;;;;;;;17.77;12.32;;;;;;;;;;4985154;28;20124;-70
2022/12/20 10:16:20;;;;;;;19.75;14.40;;;;;;;;;;4985130;28;20298;-70
2022/12/20 10:19:07;;;;;;;33.80;20.55;;;;;;;;;;4984897;28;20081;-70
2022/12/20 10:21:49;;;;;;;22.38;17.10;;;;;;;;;;4986813;28;20545;-70
2022/12/20 10:24:23;;;;;;;35.55;23.13;;;;;;;;;;4986512;28;20038;-69
2022/12/20 10:26:49;;;;;;;19.98;16.15;;;;;;;;;;4985402;28;20044;-69
2022/12/20 10:29:15;;;;;;;19.63;15.05;;;;;;;;;;4986479;28;20630;-69
2022/12/20 10:31:41;;;;;;;17.73;13.23;;;;;;;;;;4985384;28;20030;-70
2022/12/20 10:34:07;;;;;;;24.83;18.15;;;;;;;;;;4982833;28;20113;-69
2022/12/20 10:36:35;;;;;;;23.73;16.35;;;;;;;;;;4985145;28;20038;-70
2022/12/20 10:39:04;;;;;;;21.08;15.10;;;;;;;;;;4984201;28;20089;-69
2022/12/20 10:41:39;;;;;;;22.38;15.82;;;;;;;;;;4988284;28;20173;-70
2022/12/20 10:44:14;;;;;;;21.38;14.40;;;;;;;;;;4984436;28;20529;-69
2022/12/20 10:46:43;;;;;;;17.25;13.35;;;;;;;;;;4986744;28;20046;-69
2022/12/20 10:49:31;;;;;;;20.98;13.48;;;;;;;;;;4983938;28;20162;-69
2022/12/20 10:52:00;;;;;;;19.25;15.05;;;;;;;;;;4985382;28;20064;-70
2022/12/20 10:54:31;;;;;;;17.48;13.73;;;;;;;;;;4984689;28;20030;-69
2022/12/20 10:57:00;;;;;;;18.67;14.25;;;;;;;;;;4981823;28;20030;-69
2022/12/20 10:59:35;;;;;;;23.73;16.17;;;;;;;;;;4985304;28;20045;-69
2022/12/20 11:02:20;;;;;;;24.80;17.00;;;;;;;;;;4985809;28;20042;-69
2022/12/20 11:04:58;;;;;;;19.85;13.50;;;;;;;;;;4984747;28;20568;-69
2022/12/20 11:07:27;;;;;;;18.52;12.52;;;;;;;;;;4984793;28;20044;-69
2022/12/20 11:10:16;;;;;;;18.42;11.90;;;;;;;;;;4983185;28;20078;-70
2022/12/20 11:12:53;;;;;;;17.98;12.38;;;;;;;;;;4985499;28;20034;-69
2022/12/20 11:15:22;;;;;;;15.65;12.25;;;;;;;;;;4986343;28;20159;-70
2022/12/20 11:17:58;;;;;;;13.57;11.73;;;;;;;;;;4982062;28;20074;-70
2022/12/20 11:20:29;;;;;;;11.13;9.80;;;;;;;;;;4984448;28;20064;-69
2022/12/20 11:23:17;;;;;;;14.75;12.02;;;;;;;;;;4986398;28;20490;-69
2022/12/20 11:25:46;;;;;;;14.63;10.85;;;;;;;;;;4986451;28;20038;-69
2022/12/20 11:28:23;;;;;;;16.20;11.87;;;;;;;;;;4983698;28;20213;-69
2022/12/20 11:31:26;;;;;;;14.75;11.43;;;;;;;;;;4986429;28;20125;-69
2022/12/20 11:34:16;;;;;;;16.85;11.80;;;;;;;;;;4983783;28;20034;-69
2022/12/20 11:37:04;;;;;;;22.05;13.13;;;;;;;;;;4978157;28;20129;-69
2022/12/20 11:39:49;;;;;;;17.80;11.30;;;;;;;;;;4987012;28;20445;-69
2022/12/20 11:42:20;;;;;;;23.90;17.27;;;;;;;;;;4990864;28;20041;-68
2022/12/20 11:44:52;;;;;;;20.30;14.43;;;;;;;;;;4987369;28;20117;-68
2022/12/20 11:47:52;;;;;;;54.72;35.53;;;;;;;;;;4991391;28;20101;-68
2022/12/20 11:50:51;;;;;;;20.60;14.52;;;;;;;;;;4978463;28;20145;-69
2022/12/20 11:53:36;;;;;;;18.17;13.02;;;;;;;;;;4980781;28;20046;-68
2022/12/20 11:56:09;;;;;;;13.68;10.68;;;;;;;;;;4982316;28;20069;-69
2022/12/20 11:59:11;;;;;;;13.85;12.20;;;;;;;;;;4980230;28;20042;-68
2022/12/20 12:02:03;;;;;;;18.67;12.68;;;;;;;;;;4985508;28;20073;-68
2022/12/20 12:04:33;;;;;;;18.08;13.60;;;;;;;;;;4982989;28;20121;-68
2022/12/20 12:07:07;;;;;;;22.80;19.02;;;;;;;;;;4979720;28;20050;-68
2022/12/20 12:09:41;;;;;;;18.42;14.93;;;;;;;;;;4980562;28;20069;-68
2022/12/20 12:12:27;;;;;;;15.73;12.05;;;;;;;;;;4983060;28;20426;-68
2022/12/20 12:15:14;;;;;;;17.38;13.00;;;;;;;;;;4984751;28;20039;-69
2022/12/20 12:17:52;;;;;;;12.77;11.23;;;;;;;;;;4983477;28;20065;-68
2022/12/20 12:20:47;;;;;;;14.88;12.18;;;;;;;;;;4984074;28;20505;-68
2022/12/20 12:23:40;;;;;;;18.48;13.32;;;;;;;;;;4979289;28;20053;-68
2022/12/20 12:26:29;;;;;;;26.70;23.15;;;;;;;;;;4984029;28;20038;-68
2022/12/20 12:29:07;;;;;;;24.38;16.25;;;;;;;;;;4981562;28;20031;-69
2022/12/20 12:31:48;;;;;;;16.17;12.63;;;;;;;;;;4978035;28;20034;-68
2022/12/20 12:34:48;;;;;;;15.63;12.15;;;;;;;;;;4983101;28;20490;-68
2022/12/20 12:37:53;;;;;;;14.68;12.32;;;;;;;;;;4980845;28;20358;-67
2022/12/20 12:40:53;;;;;;;20.77;13.55;;;;;;;;;;4981632;28;20030;-67
2022/12/20 12:43:45;;;;;;;21.45;15.52;;;;;;;;;;4981406;28;20039;-68
2022/12/20 12:46:34;;;;;;;14.35;12.85;;;;;;;;;;4982391;28;20125;-68
2022/12/20 12:49:09;;;;;;;17.27;14.02;;;;;;;;;;4976983;28;20097;-68
2022/12/20 12:51:38;;;;;;;16.15;12.63;;;;;;;;;;4983161;28;20031;-68
2022/12/20 12:54:27;;;;;;;16.08;13.80;;;;;;;;;;4983273;28;20425;-68
2022/12/20 12:57:00;;;;;;;19.83;14.40;;;;;;;;;;4982357;28;20034;-68
2022/12/20 12:59:32;;;;;;;16.20;12.90;;;;;;;;;;4986978;28;20077;-68
2022/12/20 13:02:13;;;;;;;15.55;12.98;;;;;;;;;;4982228;28;20034;-68
2022/12/20 13:05:09;;;;;;;15.93;12.77;;;;;;;;;;4982878;28;20112;-69
2022/12/20 13:07:35;;;;;;;11.60;10.50;;;;;;;;;;4982807;28;20053;-68
2022/12/20 13:10:17;;;;;;;13.68;12.27;;;;;;;;;;4981821;28;20421;-69
2022/12/20 13:12:50;;;;;;;14.63;13.13;;;;;;;;;;4982591;28;20038;-68
2022/12/20 13:15:18;;;;;;;20.95;14.43;;;;;;;;;;4979883;28;20027;-68
2022/12/20 13:18:07;;;;;;;15.23;12.05;;;;;;;;;;4981445;28;20096;-69
2022/12/20 13:20:34;;;;;;;13.73;12.07;;;;;;;;;;4982052;28;20050;-69
2022/12/20 13:23:11;;;;;;;19.98;13.77;;;;;;;;;;4979177;28;20046;-69
2022/12/20 13:25:44;;;;;;;21.40;14.43;;;;;;;;;;4984039;28;20045;-69
2022/12/20 13:28:15;;;;;;;17.40;14.43;;;;;;;;;;4982257;28;20458;-68
2022/12/20 13:30:42;;;;;;;15.73;13.90;;;;;;;;;;4982091;28;20109;-68
2022/12/20 13:33:20;;;;;;;16.58;13.60;;;;;;;;;;4984400;28;20104;-68
2022/12/20 13:36:08;;;;;;;16.05;12.88;;;;;;;;;;4980262;28;20069;-69
2022/12/20 13:38:54;;;;;;;17.92;12.85;;;;;;;;;;4979879;28;20042;-70
2022/12/20 13:41:36;;;;;;;18.85;13.80;;;;;;;;;;4981700;28;20097;-70
2022/12/20 13:44:45;;;;;;;13.05;10.95;;;;;;;;;;4985049;28;20038;-69
2022/12/20 13:47:27;;;;;;;15.57;12.02;;;;;;;;;;4979915;28;20088;-69
2022/12/20 13:49:53;;;;;;;14.68;13.10;;;;;;;;;;4982440;28;21599;-70
2022/12/20 13:52:27;;;;;;;17.92;13.88;;;;;;;;;;4985944;28;20047;-69
2022/12/20 13:54:56;;;;;;;14.27;12.75;;;;;;;;;;4982100;28;20061;-69
2022/12/20 13:57:37;;;;;;;15.93;13.00;;;;;;;;;;4986677;28;20050;-69
2022/12/20 14:00:13;;;;;;;23.55;18.27;;;;;;;;;;4988180;28;20040;-69
2022/12/20 14:02:40;;;;;;;20.17;14.20;;;;;;;;;;4985413;28;20060;-70
2022/12/20 14:05:15;;;;;;;15.60;13.85;;;;;;;;;;4989808;28;20220;-70
2022/12/20 14:07:42;;;;;;;16.20;12.18;;;;;;;;;;4988164;28;20658;-70
2022/12/20 14:10:21;;;;;;;16.58;11.48;;;;;;;;;;4980632;28;20030;-70
2022/12/20 14:12:48;;;;;;;;;;;;;;;;;;4984573;28;20038;-71
2022/12/20 14:15:23;;;;;;;19.75;16.35;;;;;;;;;;4983105;28;20317;-69
2022/12/20 14:17:49;;;;;;;34.05;26.77;;;;;;;;;;4982748;28;20502;-70
2022/12/20 14:20:18;;;;;;;18.48;15.75;;;;;;;;;;4982277;28;20077;-71
2022/12/20 14:23:02;;;;;;;24.30;20.27;;;;;;;;;;4981423;28;20050;-71
2022/12/20 14:25:43;;;;;;;25.77;16.45;;;;;;;;;;4982789;28;20045;-70
2022/12/20 14:28:18;;;;;;;18.02;16.08;;;;;;;;;;4983093;28;20042;-70
2022/12/20 14:30:44;;;;;;;12.95;11.68;;;;;;;;;;4985315;28;20038;-70
2022/12/20 14:33:21;;;;;;;14.35;12.63;;;;;;;;;;4982476;28;20030;-70
2022/12/20 14:35:48;;;;;;;15.18;13.57;;;;;;;;;;4982949;28;20066;-71
2022/12/20 14:38:22;;;;;;;18.25;13.73;;;;;;;;;;4981212;28;20121;-71
2022/12/20 14:40:48;;;;;;;17.83;12.60;;;;;;;;;;4983235;28;20044;-71
2022/12/20 14:43:22;;;;;;;16.52;13.80;;;;;;;;;;4983317;28;20038;-72
2022/12/20 14:45:48;;;;;;;18.08;13.30;;;;;;;;;;4979711;28;20077;-72
2022/12/20 14:48:15;;;;;;;19.90;15.35;;;;;;;;;;4982317;28;20149;-72
2022/12/20 14:50:51;;;;;;;15.35;13.27;;;;;;;;;;4986909;28;20386;-72
2022/12/20 14:53:21;;;;;;;28.10;18.00;;;;;;;;;;4979252;28;20043;-71
2022/12/20 14:55:47;;;;;;;15.77;14.10;;;;;;;;;;4982369;28;20048;-72